createdAt,value
2018-09-22T00:00:52.934Z,1003.36
2018-09-22T00:01:52.967Z,1003.37
2018-09-22T00:02:52.997Z,1003.37
2018-09-22T00:03:53.028Z,1003.34
2018-09-22T00:04:53.059Z,1003.33
2018-09-22T00:05:53.091Z,1003.32
2018-09-22T00:06:53.122Z,1003.30
2018-09-22T00:07:53.155Z,1003.32
2018-09-22T00:08:53.184Z,1003.27
2018-09-22T00:09:53.216Z,1003.31
2018-09-22T00:10:53.249Z,1003.25
2018-09-22T00:11:53.280Z,1003.28
2018-09-22T00:12:53.311Z,1003.25
2018-09-22T00:13:53.341Z,1003.22
2018-09-22T00:14:53.373Z,1003.25
2018-09-22T00:15:53.406Z,1003.29
2018-09-22T00:16:53.435Z,1003.26
2018-09-22T00:17:53.466Z,1003.27
2018-09-22T00:18:53.498Z,1003.26
2018-09-22T00:19:53.530Z,1003.25
2018-09-22T00:20:53.561Z,1003.27
2018-09-22T00:21:53.696Z,1003.30
2018-09-22T00:22:53.624Z,1003.35
2018-09-22T00:23:53.656Z,1003.37
2018-09-22T00:24:53.686Z,1003.33
2018-09-22T00:25:53.718Z,1003.33
2018-09-22T00:26:53.748Z,1003.35
2018-09-22T00:27:53.781Z,1003.41
2018-09-22T00:28:53.811Z,1003.43
2018-09-22T00:29:53.843Z,1003.48
2018-09-22T00:30:53.873Z,1003.48
2018-09-22T00:31:53.908Z,1003.54
2018-09-22T00:32:53.937Z,1003.56
2018-09-22T00:33:53.968Z,1003.54
2018-09-22T00:34:53.999Z,1003.50
2018-09-22T00:35:54.036Z,1003.47
2018-09-22T00:36:54.062Z,1003.49
2018-09-22T00:37:54.094Z,1003.47
2018-09-22T00:38:54.124Z,1003.44
2018-09-22T00:39:54.158Z,1003.38
2018-09-22T00:40:54.188Z,1003.35
2018-09-22T00:41:54.219Z,1003.43
2018-09-22T00:42:54.251Z,1003.44
2018-09-22T00:43:54.283Z,1003.44
2018-09-22T00:44:54.317Z,1003.42
2018-09-22T00:45:54.344Z,1003.41
2018-09-22T00:46:54.376Z,1003.39
2018-09-22T00:47:54.408Z,1003.43
2018-09-22T00:48:54.438Z,1003.48
2018-09-22T00:49:54.469Z,1003.55
2018-09-22T00:50:54.505Z,1003.54
2018-09-22T00:51:54.534Z,1003.51
2018-09-22T00:52:54.563Z,1003.46
2018-09-22T00:53:54.595Z,1003.48
2018-09-22T00:54:54.625Z,1003.45
2018-09-22T00:55:54.660Z,1003.48
2018-09-22T00:56:54.689Z,1003.52
2018-09-22T00:57:54.720Z,1003.54
2018-09-22T00:58:54.753Z,1003.59
2018-09-22T00:59:54.791Z,1003.61
2018-09-22T01:00:54.816Z,1003.65
2018-09-22T01:01:54.844Z,1003.67
2018-09-22T01:02:54.876Z,1003.73
2018-09-22T01:03:54.908Z,1003.76
2018-09-22T01:04:54.939Z,1003.74
2018-09-22T01:05:54.976Z,1003.73
2018-09-22T01:06:55.002Z,1003.69
2018-09-22T01:07:55.035Z,1003.75
2018-09-22T01:08:55.064Z,1003.80
2018-09-22T01:09:55.096Z,1003.78
2018-09-22T01:10:55.127Z,1003.78
2018-09-22T01:11:55.160Z,1003.79
2018-09-22T01:12:55.191Z,1003.78
2018-09-22T01:13:55.221Z,1003.79
2018-09-22T01:14:55.255Z,1003.80
2018-09-22T01:15:55.389Z,1003.80
2018-09-22T01:16:55.315Z,1003.82
2018-09-22T01:17:55.345Z,1003.85
2018-09-22T01:18:55.377Z,1003.90
2018-09-22T01:19:55.411Z,1003.85
2018-09-22T01:20:55.440Z,1003.90
2018-09-22T01:21:55.471Z,1003.87
2018-09-22T01:22:55.502Z,1003.91
2018-09-22T01:23:55.536Z,1003.89
2018-09-22T01:24:55.565Z,1003.96
2018-09-22T01:25:55.596Z,1003.92
2018-09-22T01:26:55.628Z,1003.92
2018-09-22T01:27:55.660Z,1003.80
2018-09-22T01:28:55.692Z,1003.76
2018-09-22T01:29:55.723Z,1003.76
2018-09-22T01:30:55.753Z,1003.81
2018-09-22T01:31:55.787Z,1003.87
2018-09-22T01:32:55.814Z,1003.92
2018-09-22T01:33:55.845Z,1003.88
2018-09-22T01:34:55.877Z,1003.92
2018-09-22T01:35:55.908Z,1003.91
2018-09-22T01:36:55.939Z,1003.87
2018-09-22T01:37:55.970Z,1003.85
2018-09-22T01:38:56.000Z,1003.78
2018-09-22T01:39:56.033Z,1003.79
2018-09-22T01:40:56.063Z,1003.76
2018-09-22T01:41:56.094Z,1003.80
2018-09-22T01:42:56.128Z,1003.84
2018-09-22T01:43:56.158Z,1003.85
2018-09-22T01:44:56.187Z,1003.82
2018-09-22T01:45:56.220Z,1003.81
2018-09-22T01:46:56.249Z,1003.76
2018-09-22T01:47:56.281Z,1003.76
2018-09-22T01:48:56.312Z,1003.74
2018-09-22T01:49:56.344Z,1003.72
2018-09-22T01:50:56.375Z,1003.69
2018-09-22T01:51:56.405Z,1003.62
2018-09-22T01:52:56.437Z,1003.65
2018-09-22T01:53:56.467Z,1003.65
2018-09-22T01:54:56.499Z,1003.68
2018-09-22T01:55:56.530Z,1003.76
2018-09-22T01:56:56.560Z,1003.81
2018-09-22T01:57:56.592Z,1003.87
2018-09-22T01:58:56.623Z,1003.89
2018-09-22T01:59:58.108Z,1003.78
2018-09-22T02:00:56.684Z,1003.81
2018-09-22T02:01:56.717Z,1003.79
2018-09-22T02:02:56.747Z,1003.81
2018-09-22T02:03:56.778Z,1003.76
2018-09-22T02:04:56.810Z,1003.67
2018-09-22T02:05:56.840Z,1003.60
2018-09-22T02:06:56.871Z,1003.56
2018-09-22T02:07:56.902Z,1003.54
2018-09-22T02:08:56.934Z,1003.56
2018-09-22T02:09:56.965Z,1003.65
2018-09-22T02:10:56.995Z,1003.65
2018-09-22T02:11:57.027Z,1003.69
2018-09-22T02:12:57.057Z,1003.67
2018-09-22T02:13:57.092Z,1003.71
2018-09-22T02:14:57.127Z,1003.73
2018-09-22T02:15:57.153Z,1003.72
2018-09-22T02:16:57.182Z,1003.69
2018-09-22T02:17:57.213Z,1003.69
2018-09-22T02:18:57.245Z,1003.65
2018-09-22T02:19:57.277Z,1003.63
2018-09-22T02:20:57.306Z,1003.70
2018-09-22T02:21:57.340Z,1003.71
2018-09-22T02:22:57.368Z,1003.73
2018-09-22T02:23:57.399Z,1003.76
2018-09-22T02:24:57.430Z,1003.75
2018-09-22T02:25:57.462Z,1003.73
2018-09-22T02:26:57.493Z,1003.81
2018-09-22T02:27:57.524Z,1003.76
2018-09-22T02:28:57.554Z,1003.76
2018-09-22T02:29:57.585Z,1003.68
2018-09-22T02:30:57.618Z,1003.61
2018-09-22T02:31:57.649Z,1003.56
2018-09-22T02:32:57.679Z,1003.54
2018-09-22T02:33:57.714Z,1003.55
2018-09-22T02:34:57.742Z,1003.57
2018-09-22T02:35:57.773Z,1003.59
2018-09-22T02:36:57.804Z,1003.57
2018-09-22T02:37:57.836Z,1003.61
2018-09-22T02:38:57.867Z,1003.60
2018-09-22T02:39:57.898Z,1003.62
2018-09-22T02:40:57.929Z,1003.59
2018-09-22T02:41:57.959Z,1003.59
2018-09-22T02:42:57.991Z,1003.63
2018-09-22T02:43:58.026Z,1003.68
2018-09-22T02:44:58.054Z,1003.73
2018-09-22T02:45:58.087Z,1003.72
2018-09-22T02:46:58.115Z,1003.73
2018-09-22T02:47:58.147Z,1003.78
2018-09-22T02:48:58.177Z,1003.79
2018-09-22T02:49:58.209Z,1003.75
2018-09-22T02:50:58.242Z,1003.75
2018-09-22T02:51:58.273Z,1003.77
2018-09-22T02:52:58.301Z,1003.78
2018-09-22T02:53:58.333Z,1003.86
2018-09-22T02:54:58.365Z,1003.92
2018-09-22T02:55:58.396Z,1003.93
2018-09-22T02:56:58.428Z,1003.94
2018-09-22T02:57:58.459Z,1003.94
2018-09-22T02:58:58.488Z,1003.92
2018-09-22T02:59:58.520Z,1003.87
2018-09-22T03:00:58.551Z,1003.87
2018-09-22T03:01:58.584Z,1003.82
2018-09-22T03:02:58.614Z,1003.77
2018-09-22T03:03:58.655Z,1003.73
2018-09-22T03:04:58.675Z,1003.67
2018-09-22T03:05:58.707Z,1003.61
2018-09-22T03:06:58.738Z,1003.53
2018-09-22T03:07:58.771Z,1003.50
2018-09-22T03:08:58.802Z,1003.54
2018-09-22T03:09:58.849Z,1003.52
2018-09-22T03:10:58.862Z,1003.58
2018-09-22T03:11:58.893Z,1003.59
2018-09-22T03:12:58.924Z,1003.59
2018-09-22T03:13:58.956Z,1003.64
2018-09-22T03:14:58.986Z,1003.77
2018-09-22T03:15:59.017Z,1003.80
2018-09-22T03:16:59.048Z,1003.82
2018-09-22T03:17:59.080Z,1003.85
2018-09-22T03:18:59.111Z,1003.86
2018-09-22T03:19:59.141Z,1003.88
2018-09-22T03:20:59.173Z,1003.91
2018-09-22T03:21:59.215Z,1003.90
2018-09-22T03:22:59.234Z,1003.95
2018-09-22T03:23:59.265Z,1003.96
2018-09-22T03:24:59.296Z,1003.91
2018-09-22T03:25:59.327Z,1003.82
2018-09-22T03:26:59.359Z,1003.84
2018-09-22T03:27:59.390Z,1003.83
2018-09-22T03:28:59.420Z,1003.81
2018-09-22T03:29:59.451Z,1003.79
2018-09-22T03:30:59.487Z,1003.84
2018-09-22T03:31:59.513Z,1003.85
2018-09-22T03:32:59.543Z,1003.98
2018-09-22T03:33:59.574Z,1004.00
2018-09-22T03:34:59.611Z,1003.98
2018-09-22T03:35:59.637Z,1004.01
2018-09-22T03:36:59.668Z,1004.03
2018-09-22T03:37:59.701Z,1004.18
2018-09-22T03:38:59.729Z,1004.30
2018-09-22T03:39:59.765Z,1004.34
2018-09-22T03:40:59.791Z,1004.34
2018-09-22T03:41:59.822Z,1004.36
2018-09-22T03:42:59.853Z,1004.36
2018-09-22T03:43:59.890Z,1004.36
2018-09-22T03:44:59.914Z,1004.33
2018-09-22T03:45:59.945Z,1004.34
2018-09-22T03:46:59.976Z,1004.32
2018-09-22T03:48:00.008Z,1004.34
2018-09-22T03:49:00.040Z,1004.39
2018-09-22T03:50:00.069Z,1004.39
2018-09-22T03:51:00.100Z,1004.33
2018-09-22T03:52:00.131Z,1004.33
2018-09-22T03:53:00.162Z,1004.31
2018-09-22T03:54:00.193Z,1004.28
2018-09-22T03:55:00.225Z,1004.30
2018-09-22T03:56:00.255Z,1004.33
2018-09-22T03:57:00.285Z,1004.32
2018-09-22T03:58:00.318Z,1004.33
2018-09-22T03:59:00.346Z,1004.29
2018-09-22T04:00:00.377Z,1004.23
2018-09-22T04:01:00.407Z,1004.19
2018-09-22T04:02:00.439Z,1004.16
2018-09-22T04:03:00.469Z,1004.13
2018-09-22T04:04:00.500Z,1004.14
2018-09-22T04:05:00.532Z,1004.13
2018-09-22T04:06:00.562Z,1004.07
2018-09-22T04:07:00.596Z,1004.01
2018-09-22T04:08:00.623Z,1003.99
2018-09-22T04:09:00.654Z,1003.91
2018-09-22T04:10:00.684Z,1003.94
2018-09-22T04:11:00.716Z,1003.91
2018-09-22T04:12:00.746Z,1003.94
2018-09-22T04:13:00.776Z,1003.93
2018-09-22T04:14:00.807Z,1003.94
2018-09-22T04:15:00.837Z,1003.87
2018-09-22T04:16:00.870Z,1003.81
2018-09-22T04:17:00.899Z,1003.73
2018-09-22T04:18:00.931Z,1003.69
2018-09-22T04:19:00.960Z,1003.67
2018-09-22T04:20:00.991Z,1003.66
2018-09-22T04:21:01.021Z,1003.66
2018-09-22T04:22:01.052Z,1003.69
2018-09-22T04:23:01.089Z,1003.72
2018-09-22T04:24:01.114Z,1003.77
2018-09-22T04:25:01.144Z,1003.79
2018-09-22T04:26:01.175Z,1003.76
2018-09-22T04:27:01.206Z,1003.70
2018-09-22T04:28:01.236Z,1003.69
2018-09-22T04:29:01.267Z,1003.67
2018-09-22T04:30:01.300Z,1003.62
2018-09-22T04:31:01.328Z,1003.63
2018-09-22T04:32:01.361Z,1003.64
2018-09-22T04:33:01.389Z,1003.67
2018-09-22T04:34:01.420Z,1003.74
2018-09-22T04:35:01.452Z,1003.75
2018-09-22T04:36:01.483Z,1003.81
2018-09-22T04:37:01.514Z,1003.82
2018-09-22T04:38:01.543Z,1003.82
2018-09-22T04:39:01.574Z,1003.81
2018-09-22T04:40:01.609Z,1003.85
2018-09-22T04:41:01.635Z,1003.80
2018-09-22T04:42:01.667Z,1003.84
2018-09-22T04:43:01.698Z,1003.86
2018-09-22T04:44:01.730Z,1003.87
2018-09-22T04:45:01.760Z,1003.88
2018-09-22T04:46:01.790Z,1003.83
2018-09-22T04:47:01.821Z,1003.77
2018-09-22T04:48:01.853Z,1003.81
2018-09-22T04:49:01.884Z,1003.80
2018-09-22T04:50:01.913Z,1003.80
2018-09-22T04:51:01.944Z,1003.83
2018-09-22T04:52:01.976Z,1003.90
2018-09-22T04:53:02.016Z,1003.88
2018-09-22T04:54:02.036Z,1003.94
2018-09-22T04:55:02.068Z,1003.90
2018-09-22T04:56:02.098Z,1003.93
2018-09-22T04:57:02.129Z,1003.93
2018-09-22T04:58:02.160Z,1003.88
2018-09-22T04:59:02.192Z,1003.91
2018-09-22T05:00:02.223Z,1003.92
2018-09-22T05:01:02.255Z,1003.92
2018-09-22T05:02:02.284Z,1003.91
2018-09-22T05:03:02.313Z,1003.95
2018-09-22T05:04:02.345Z,1003.91
2018-09-22T05:05:02.381Z,1003.89
2018-09-22T05:06:02.406Z,1003.81
2018-09-22T05:07:02.438Z,1003.86
2018-09-22T05:08:02.467Z,1003.90
2018-09-22T05:09:02.498Z,1003.93
2018-09-22T05:10:02.529Z,1003.96
2018-09-22T05:11:02.560Z,1003.99
2018-09-22T05:12:02.596Z,1003.98
2018-09-22T05:13:02.620Z,1003.99
2018-09-22T05:14:02.651Z,1003.97
2018-09-22T05:15:02.681Z,1003.99
2018-09-22T05:16:02.714Z,1003.97
2018-09-22T05:17:02.864Z,1004.01
2018-09-22T05:18:02.775Z,1003.99
2018-09-22T05:19:02.804Z,1004.02
2018-09-22T05:20:02.836Z,1004.01
2018-09-22T05:21:02.867Z,1003.97
2018-09-22T05:22:02.896Z,1004.01
2018-09-22T05:23:02.928Z,1003.97
2018-09-22T05:24:02.960Z,1003.99
2018-09-22T05:25:02.988Z,1003.95
2018-09-22T05:26:03.019Z,1004.02
2018-09-22T05:27:03.051Z,1004.08
2018-09-22T05:28:03.085Z,1004.15
2018-09-22T05:29:03.110Z,1004.17
2018-09-22T05:30:03.141Z,1004.18
2018-09-22T05:31:03.172Z,1004.24
2018-09-22T05:32:03.202Z,1004.21
2018-09-22T05:33:03.233Z,1004.19
2018-09-22T05:34:03.312Z,1004.14
2018-09-22T05:35:03.296Z,1004.10
2018-09-22T05:36:03.325Z,1004.10
2018-09-22T05:37:03.354Z,1004.11
2018-09-22T05:38:03.385Z,1004.16
2018-09-22T05:39:03.416Z,1004.20
2018-09-22T05:40:03.447Z,1004.28
2018-09-22T05:41:03.481Z,1004.26
2018-09-22T05:42:03.507Z,1004.19
2018-09-22T05:43:03.536Z,1004.17
2018-09-22T05:44:03.575Z,1004.18
2018-09-22T05:45:03.599Z,1004.26
2018-09-22T05:46:03.629Z,1004.28
2018-09-22T05:47:03.665Z,1004.38
2018-09-22T05:48:03.695Z,1004.46
2018-09-22T05:49:03.720Z,1004.52
2018-09-22T05:50:03.751Z,1004.56
2018-09-22T05:51:03.786Z,1004.60
2018-09-22T05:52:03.813Z,1004.63
2018-09-22T05:53:03.843Z,1004.59
2018-09-22T05:54:03.874Z,1004.50
2018-09-22T05:55:03.904Z,1004.44
2018-09-22T05:56:03.935Z,1004.45
2018-09-22T05:57:03.965Z,1004.39
2018-09-22T05:58:04.051Z,1004.36
2018-09-22T05:59:04.027Z,1004.37
2018-09-22T06:00:04.059Z,1004.32
2018-09-22T06:01:04.094Z,1004.38
2018-09-22T06:02:04.118Z,1004.40
2018-09-22T06:03:04.149Z,1004.50
2018-09-22T06:04:04.296Z,1004.57
2018-09-22T06:05:04.211Z,1004.62
2018-09-22T06:06:04.242Z,1004.62
2018-09-22T06:07:04.271Z,1004.58
2018-09-22T06:08:04.303Z,1004.61
2018-09-22T06:09:04.333Z,1004.59
2018-09-22T06:10:04.364Z,1004.57
2018-09-22T06:11:04.395Z,1004.58
2018-09-22T06:12:04.428Z,1004.60
2018-09-22T06:13:04.455Z,1004.53
2018-09-22T06:14:04.488Z,1004.49
2018-09-22T06:15:04.517Z,1004.47
2018-09-22T06:16:04.548Z,1004.48
2018-09-22T06:17:04.578Z,1004.42
2018-09-22T06:18:04.609Z,1004.37
2018-09-22T06:19:04.642Z,1004.40
2018-09-22T06:20:04.673Z,1004.43
2018-09-22T06:21:04.701Z,1004.45
2018-09-22T06:22:04.733Z,1004.47
2018-09-22T06:23:04.785Z,1004.53
2018-09-22T06:24:04.796Z,1004.55
2018-09-22T06:25:04.825Z,1004.59
2018-09-22T06:26:04.856Z,1004.55
2018-09-22T06:27:04.892Z,1004.58
2018-09-22T06:28:04.918Z,1004.57
2018-09-22T06:29:04.954Z,1004.61
2018-09-22T06:30:04.980Z,1004.61
2018-09-22T06:31:05.011Z,1004.63
2018-09-22T06:32:05.045Z,1004.61
2018-09-22T06:33:05.074Z,1004.62
2018-09-22T06:34:05.151Z,1004.62
2018-09-22T06:35:05.138Z,1004.71
2018-09-22T06:36:05.168Z,1004.74
2018-09-22T06:37:05.197Z,1004.87
2018-09-22T06:38:05.230Z,1004.94
2018-09-22T06:39:05.261Z,1004.95
2018-09-22T06:40:05.293Z,1005.01
2018-09-22T06:41:05.323Z,1005.03
2018-09-22T06:42:05.355Z,1005.02
2018-09-22T06:43:05.386Z,1004.95
2018-09-22T06:44:05.418Z,1004.90
2018-09-22T06:45:05.449Z,1004.87
2018-09-22T06:46:05.542Z,1004.88
2018-09-22T06:47:05.514Z,1004.85
2018-09-22T06:48:05.550Z,1004.84
2018-09-22T06:49:05.575Z,1004.87
2018-09-22T06:50:05.606Z,1004.89
2018-09-22T06:51:05.641Z,1004.91
2018-09-22T06:52:05.672Z,1004.85
2018-09-22T06:53:05.701Z,1004.81
2018-09-22T06:54:05.734Z,1004.83
2018-09-22T06:55:05.767Z,1004.85
2018-09-22T06:56:05.797Z,1004.87
2018-09-22T06:57:05.829Z,1004.82
2018-09-22T06:58:05.861Z,1004.82
2018-09-22T06:59:05.895Z,1004.74
2018-09-22T07:00:05.925Z,1004.76
2018-09-22T07:01:05.957Z,1004.73
2018-09-22T07:02:05.988Z,1004.69
2018-09-22T07:03:06.021Z,1004.74
2018-09-22T07:04:06.055Z,1004.73
2018-09-22T07:05:06.090Z,1004.76
2018-09-22T07:06:06.117Z,1004.75
2018-09-22T07:07:06.152Z,1004.76
2018-09-22T07:08:06.181Z,1004.83
2018-09-22T07:09:06.213Z,1004.88
2018-09-22T07:10:06.245Z,1004.88
2018-09-22T07:11:06.277Z,1004.90
2018-09-22T07:12:06.311Z,1004.86
2018-09-22T07:13:06.341Z,1004.91
2018-09-22T07:14:06.373Z,1004.90
2018-09-22T07:15:06.407Z,1004.88
2018-09-22T07:16:06.439Z,1004.90
2018-09-22T07:17:06.471Z,1004.89
2018-09-22T07:18:06.503Z,1004.93
2018-09-22T07:19:06.537Z,1004.97
2018-09-22T07:20:06.573Z,1004.95
2018-09-22T07:21:06.600Z,1004.96
2018-09-22T07:22:06.637Z,1004.95
2018-09-22T07:23:06.666Z,1004.91
2018-09-22T07:24:06.699Z,1004.83
2018-09-22T07:25:06.732Z,1004.84
2018-09-22T07:26:06.766Z,1004.82
2018-09-22T07:27:06.797Z,1004.89
2018-09-22T07:28:06.831Z,1004.89
2018-09-22T07:29:06.863Z,1004.90
2018-09-22T07:30:06.897Z,1004.91
2018-09-22T07:31:06.929Z,1004.85
2018-09-22T07:32:06.962Z,1004.87
2018-09-22T07:33:06.996Z,1004.85
2018-09-22T07:34:07.028Z,1004.84
2018-09-22T07:35:07.061Z,1004.80
2018-09-22T07:36:07.094Z,1004.82
2018-09-22T07:37:07.130Z,1004.75
2018-09-22T07:38:07.159Z,1004.79
2018-09-22T07:39:07.195Z,1004.86
2018-09-22T07:40:07.226Z,1004.86
2018-09-22T07:41:07.259Z,1004.83
2018-09-22T07:42:07.292Z,1004.82
2018-09-22T07:43:07.326Z,1004.83
2018-09-22T07:44:07.359Z,1004.90
2018-09-22T07:45:07.391Z,1004.96
2018-09-22T07:46:07.426Z,1004.94
2018-09-22T07:47:07.459Z,1004.89
2018-09-22T07:48:07.496Z,1004.85
2018-09-22T07:49:07.526Z,1004.85
2018-09-22T07:50:07.562Z,1004.87
2018-09-22T07:51:07.593Z,1004.85
2018-09-22T07:52:07.628Z,1004.82
2018-09-22T07:53:07.661Z,1004.76
2018-09-22T07:54:07.693Z,1004.75
2018-09-22T07:55:07.727Z,1004.79
2018-09-22T07:56:07.761Z,1004.81
2018-09-22T07:57:07.843Z,1004.85
2018-09-22T07:58:07.830Z,1004.86
2018-09-22T07:59:07.863Z,1004.87
2018-09-22T08:00:07.898Z,1004.88
2018-09-22T08:01:07.931Z,1004.93
2018-09-22T08:02:07.965Z,1004.94
2018-09-22T08:03:08.000Z,1005.00
2018-09-22T08:04:08.034Z,1004.99
2018-09-22T08:05:08.068Z,1005.03
2018-09-22T08:06:08.102Z,1004.93
2018-09-22T08:07:08.137Z,1004.92
2018-09-22T08:08:08.171Z,1004.92
2018-09-22T08:09:08.206Z,1004.91
2018-09-22T08:10:08.240Z,1004.86
2018-09-22T08:11:08.274Z,1004.95
2018-09-22T08:12:08.310Z,1004.95
2018-09-22T08:13:08.344Z,1004.97
2018-09-22T08:14:08.381Z,1004.97
2018-09-22T08:15:08.414Z,1004.96
2018-09-22T08:16:08.451Z,1004.94
2018-09-22T08:17:08.487Z,1004.93
2018-09-22T08:18:08.518Z,1004.97
2018-09-22T08:19:08.553Z,1004.96
2018-09-22T08:20:08.589Z,1004.89
2018-09-22T08:21:08.624Z,1004.82
2018-09-22T08:22:08.659Z,1004.83
2018-09-22T08:23:08.695Z,1004.79
2018-09-22T08:24:08.729Z,1004.79
2018-09-22T08:25:08.818Z,1004.81
2018-09-22T08:26:08.799Z,1004.82
2018-09-22T08:27:08.842Z,1004.92
2018-09-22T08:28:08.874Z,1004.93
2018-09-22T08:29:08.907Z,1004.96
2018-09-22T08:30:08.941Z,1004.95
2018-09-22T08:31:08.977Z,1004.90
2018-09-22T08:32:09.334Z,1004.89
2018-09-22T08:33:09.049Z,1004.86
2018-09-22T08:34:09.084Z,1004.82
2018-09-22T08:35:09.120Z,1004.85
2018-09-22T08:36:09.245Z,1004.84
2018-09-22T08:37:09.357Z,1004.84
2018-09-22T08:38:09.227Z,1004.82
2018-09-22T08:39:09.302Z,1004.83
2018-09-22T08:40:09.300Z,1004.82
2018-09-22T08:41:09.336Z,1004.82
2018-09-22T08:42:09.374Z,1004.81
2018-09-22T08:43:09.408Z,1004.86
2018-09-22T08:44:09.445Z,1004.88
2018-09-22T08:45:09.482Z,1004.92
2018-09-22T08:46:09.517Z,1004.92
2018-09-22T08:47:09.554Z,1004.94
2018-09-22T08:48:09.592Z,1004.92
2018-09-22T08:49:09.626Z,1004.86
2018-09-22T08:50:09.720Z,1004.84
2018-09-22T08:51:09.747Z,1004.82
2018-09-22T08:52:09.737Z,1004.85
2018-09-22T08:53:09.774Z,1004.81
2018-09-22T08:54:09.811Z,1004.82
2018-09-22T08:55:09.848Z,1004.73
2018-09-22T08:56:09.885Z,1004.75
2018-09-22T08:57:09.921Z,1004.68
2018-09-22T08:58:09.964Z,1004.69
2018-09-22T08:59:09.996Z,1004.76
2018-09-22T09:00:10.034Z,1004.83
2018-09-22T09:01:10.070Z,1004.91
2018-09-22T09:02:10.109Z,1004.90
2018-09-22T09:03:10.146Z,1004.93
2018-09-22T09:04:10.183Z,1004.95
2018-09-22T09:05:10.347Z,1005.04
2018-09-22T09:06:10.258Z,1005.04
2018-09-22T09:07:10.295Z,1005.02
2018-09-22T09:08:10.333Z,1004.97
2018-09-22T09:09:10.375Z,1005.00
2018-09-22T09:10:10.415Z,1004.95
2018-09-22T09:11:10.447Z,1005.01
2018-09-22T09:12:10.484Z,1005.02
2018-09-22T09:13:10.530Z,1005.08
2018-09-22T09:14:10.620Z,1005.11
2018-09-22T09:15:10.601Z,1005.15
2018-09-22T09:16:10.637Z,1005.15
2018-09-22T09:17:10.702Z,1005.13
2018-09-22T09:18:10.713Z,1005.19
2018-09-22T09:19:10.772Z,1005.15
2018-09-22T09:20:10.791Z,1005.06
2018-09-22T09:21:10.828Z,1005.01
2018-09-22T09:22:10.867Z,1004.98
2018-09-22T09:23:10.906Z,1004.94
2018-09-22T09:24:10.945Z,1004.90
2018-09-22T09:25:10.983Z,1004.89
2018-09-22T09:26:11.021Z,1004.89
2018-09-22T09:27:11.060Z,1004.89
2018-09-22T09:28:11.098Z,1004.83
2018-09-22T09:29:11.136Z,1004.84
2018-09-22T09:30:11.175Z,1004.80
2018-09-22T09:31:11.214Z,1004.79
2018-09-22T09:32:11.252Z,1004.77
2018-09-22T09:33:11.292Z,1004.72
2018-09-22T09:34:11.329Z,1004.72
2018-09-22T09:35:11.369Z,1004.84
2018-09-22T09:36:11.407Z,1005.00
2018-09-22T09:37:11.443Z,1005.11
2018-09-22T09:38:11.483Z,1005.21
2018-09-22T09:39:11.522Z,1005.23
2018-09-22T09:40:11.561Z,1004.95
2018-09-22T09:41:11.602Z,1005.11
2018-09-22T09:42:11.637Z,1005.08
2018-09-22T09:43:11.714Z,1005.03
2018-09-22T09:44:11.721Z,1004.99
2018-09-22T09:45:11.756Z,1004.93
2018-09-22T09:46:11.794Z,1004.85
2018-09-22T09:47:11.835Z,1004.86
2018-09-22T09:48:11.875Z,1004.87
2018-09-22T09:49:11.913Z,1004.87
2018-09-22T09:50:11.954Z,1004.83
2018-09-22T09:51:11.994Z,1004.77
2018-09-22T09:52:12.033Z,1004.80
2018-09-22T09:53:12.076Z,1004.75
2018-09-22T09:54:12.116Z,1004.69
2018-09-22T09:55:12.153Z,1004.67
2018-09-22T09:56:12.193Z,1004.66
2018-09-22T09:57:12.232Z,1004.62
2018-09-22T09:58:12.272Z,1004.52
2018-09-22T09:59:12.311Z,1004.64
2018-09-22T10:00:12.351Z,1004.66
2018-09-22T10:01:12.390Z,1004.69
2018-09-22T10:02:12.428Z,1004.62
2018-09-22T10:03:12.470Z,1004.75
2018-09-22T10:04:12.522Z,1004.96
2018-09-22T10:05:12.547Z,1004.99
2018-09-22T10:06:12.588Z,1004.75
2018-09-22T10:07:12.627Z,1004.96
2018-09-22T10:08:12.666Z,1004.99
2018-09-22T10:09:12.705Z,1005.02
2018-09-22T10:10:12.747Z,1004.88
2018-09-22T10:11:12.788Z,1005.03
2018-09-22T10:12:12.829Z,1005.20
2018-09-22T10:13:12.868Z,1005.16
2018-09-22T10:14:12.911Z,1005.01
2018-09-22T10:15:12.952Z,1004.70
2018-09-22T10:16:12.993Z,1004.84
2018-09-22T10:17:13.036Z,1005.18
2018-09-22T10:18:13.079Z,1005.49
2018-09-22T10:19:13.121Z,1005.37
2018-09-22T10:20:13.245Z,1005.17
2018-09-22T10:21:13.210Z,1004.89
2018-09-22T10:22:13.249Z,1004.76
2018-09-22T10:23:13.293Z,1004.79
2018-09-22T10:24:13.336Z,1005.29
2018-09-22T10:25:13.380Z,1004.99
2018-09-22T10:26:13.437Z,1005.47
2018-09-22T10:27:13.469Z,1005.41
2018-09-22T10:28:13.516Z,1005.23
2018-09-22T10:29:13.561Z,1005.12
2018-09-22T10:30:13.604Z,1005.61
2018-09-22T10:31:13.649Z,1005.44
2018-09-22T10:32:13.696Z,1005.39
2018-09-22T10:33:13.966Z,1005.56
2018-09-22T10:34:14.116Z,1004.95
2018-09-22T10:35:13.833Z,1005.15
2018-09-22T10:36:13.901Z,1004.72
2018-09-22T10:37:13.928Z,1005.49
2018-09-22T10:38:13.975Z,1005.57
2018-09-22T10:39:14.021Z,1005.75
2018-09-22T10:40:16.697Z,1005.32
2018-09-22T10:41:14.116Z,1005.09
2018-09-22T10:42:14.169Z,1004.55
2018-09-22T10:43:14.209Z,1004.74
2018-09-22T10:44:14.258Z,1004.89
2018-09-22T10:45:14.303Z,1004.64
2018-09-22T10:46:14.351Z,1004.92
2018-09-22T10:47:14.398Z,1005.49
2018-09-22T10:48:14.670Z,1005.68
2018-09-22T10:50:14.541Z,1005.78
2018-09-22T10:51:14.588Z,1005.74
2018-09-22T10:52:14.635Z,1005.48
2018-09-22T10:53:14.683Z,1005.60
2018-09-22T10:54:14.731Z,1005.61
2018-09-22T10:55:14.802Z,1005.13
2018-09-22T10:56:14.828Z,1005.36
2018-09-22T10:57:14.900Z,1005.35
2018-09-22T10:58:14.924Z,1005.45
2018-09-22T10:59:14.975Z,1005.66
2018-09-22T11:00:15.024Z,1005.41
2018-09-22T11:01:15.910Z,1005.33
2018-09-22T11:02:15.122Z,1005.64
2018-09-22T11:03:15.175Z,1005.04
2018-09-22T11:04:15.221Z,1004.04
2018-09-22T11:05:15.496Z,1004.90
2018-09-22T11:06:15.320Z,1004.71
2018-09-22T11:07:15.395Z,1005.84
2018-09-22T11:08:15.444Z,1005.87
2018-09-22T11:09:15.493Z,1005.83
2018-09-22T11:10:18.950Z,1005.84
2018-09-22T11:11:15.568Z,1005.74
2018-09-22T11:12:16.428Z,1005.75
2018-09-22T11:14:15.719Z,1005.76
2018-09-22T11:15:15.769Z,1005.80
2018-09-22T11:16:15.821Z,1005.70
2018-09-22T11:17:15.868Z,1005.63
2018-09-22T11:18:15.918Z,1005.68
2018-09-22T11:19:15.973Z,1005.58
2018-09-22T11:20:16.045Z,1005.59
2018-09-22T11:21:16.071Z,1005.46
2018-09-22T11:22:16.122Z,1005.34
2018-09-22T11:23:16.173Z,1005.27
2018-09-22T11:24:16.223Z,1005.39
2018-09-22T11:25:16.273Z,1005.49
2018-09-22T11:26:16.323Z,1004.68
2018-09-22T11:27:16.375Z,1005.39
2018-09-22T11:28:16.424Z,1005.39
2018-09-22T11:29:16.479Z,1005.45
2018-09-22T11:30:16.524Z,1005.39
2018-09-22T11:31:16.575Z,1005.35
2018-09-22T11:32:16.625Z,1005.36
2018-09-22T11:33:16.673Z,1005.38
2018-09-22T11:34:16.723Z,1005.41
2018-09-22T11:35:16.774Z,1005.41
2018-09-22T11:36:16.824Z,1005.32
2018-09-22T11:37:16.874Z,1005.31
2018-09-22T11:38:16.970Z,1005.19
2018-09-22T11:39:16.975Z,1005.36
2018-09-22T11:40:17.031Z,1005.28
2018-09-22T11:41:17.079Z,1005.07
2018-09-22T11:42:17.351Z,1005.03
2018-09-22T11:43:17.178Z,1004.96
2018-09-22T11:44:17.229Z,1004.91
2018-09-22T11:45:17.279Z,1005.18
2018-09-22T11:46:17.360Z,1005.34
2018-09-22T11:47:17.381Z,1005.43
2018-09-22T11:48:17.432Z,1005.22
2018-09-22T11:49:17.482Z,1005.11
2018-09-22T11:50:17.534Z,1005.11
2018-09-22T11:51:17.584Z,1004.88
2018-09-22T11:52:17.636Z,1004.93
2018-09-22T11:53:17.685Z,1004.87
2018-09-22T11:54:17.740Z,1004.89
2018-09-22T11:55:17.791Z,1004.91
2018-09-22T11:56:17.841Z,1004.79
2018-09-22T11:57:17.890Z,1005.10
2018-09-22T11:58:17.942Z,1005.05
2018-09-22T11:59:17.993Z,1004.98
2018-09-22T12:00:18.043Z,1004.75
2018-09-22T12:01:18.095Z,1005.08
2018-09-22T12:02:18.146Z,1004.86
2018-09-22T12:03:18.197Z,1004.65
2018-09-22T12:04:18.248Z,1003.81
2018-09-22T12:05:18.300Z,1003.32
2018-09-22T12:06:18.399Z,1003.37
2018-09-22T12:07:18.402Z,1003.52
2018-09-22T12:08:18.453Z,1003.65